Time;durP1;ratioP1;P1;durP2;ratioP2;P2;SDS_P1;SDS_P2;PMS_P1;PMS_P2;Temp;Humidity;BMP_temperature;BMP_pressure;BME280_temperature;BME280_humidity;BME280_pressure;Samples;Min_cycle;Max_cycle;Signal;HPM_P1;HPM_P2
2022/05/30 00:00:17;;;;;;;7.57;2.25;;;7.20;99.90;;;;;;5003791;28;20054;-82
2022/05/30 00:02:43;;;;;;;8.07;2.15;;;7.20;99.90;;;;;;5025217;28;20093;-83
2022/05/30 00:05:10;;;;;;;11.38;2.22;;;7.10;99.90;;;;;;5008957;28;20062;-85
2022/05/30 00:07:37;;;;;;;9.45;2.08;;;7.00;99.90;;;;;;5023316;28;20475;-83
2022/05/30 00:10:03;;;;;;;6.85;2.17;;;7.10;99.90;;;;;;5007804;28;20041;-83
2022/05/30 00:12:30;;;;;;;8.68;2.28;;;7.00;99.90;;;;;;5020140;28;20041;-83
2022/05/30 00:14:55;;;;;;;11.77;2.40;;;6.90;99.90;;;;;;4998703;28;21103;-83
2022/05/30 00:17:21;;;;;;;10.50;2.65;;;6.90;99.90;;;;;;4998424;28;20124;-83
2022/05/30 00:19:47;;;;;;;6.32;2.33;;;6.80;99.90;;;;;;5021476;28;20695;-83
2022/05/30 00:22:14;;;;;;;9.20;2.67;;;6.70;99.90;;;;;;4989906;28;20081;-84
2022/05/30 00:24:41;;;;;;;9.98;3.05;;;6.70;99.90;;;;;;5011267;28;20111;-83
2022/05/30 00:27:08;;;;;;;11.18;2.90;;;6.70;99.90;;;;;;5029024;28;20041;-83
2022/05/30 00:29:34;;;;;;;12.63;3.63;;;6.70;99.90;;;;;;5044021;28;20069;-82
2022/05/30 00:32:00;;;;;;;17.80;3.15;;;6.70;99.90;;;;;;4981204;28;20074;-83
2022/05/30 00:34:26;;;;;;;8.50;3.05;;;6.70;99.90;;;;;;5015430;28;20064;-83
2022/05/30 00:36:52;;;;;;;10.48;3.00;;;6.70;99.90;;;;;;5042025;28;20050;-83
2022/05/30 00:39:18;;;;;;;15.43;3.40;;;6.80;99.90;;;;;;5012847;28;20049;-83
2022/05/30 00:41:44;;;;;;;8.48;3.00;;;6.90;99.90;;;;;;5010584;28;20057;-83
2022/05/30 00:44:10;;;;;;;8.77;2.75;;;6.90;99.90;;;;;;5011203;28;20080;-83
2022/05/30 00:46:36;;;;;;;14.77;3.45;;;6.80;99.90;;;;;;5012203;28;20737;-82
2022/05/30 00:49:08;;;;;;;11.80;2.88;;;6.90;99.90;;;;;;5012479;28;20069;-83
2022/05/30 00:51:42;;;;;;;10.73;3.55;;;6.70;99.90;;;;;;5026108;28;20152;-83
2022/05/30 00:54:11;;;;;;;13.27;3.30;;;6.80;99.90;;;;;;5026334;28;20053;-82
2022/05/30 00:56:42;;;;;;;9.73;3.00;;;6.70;99.90;;;;;;5028793;28;22048;-82
2022/05/30 00:59:09;;;;;;;12.45;3.17;;;6.60;99.90;;;;;;5030780;28;20152;-82
2022/05/30 01:01:36;;;;;;;9.90;2.95;;;6.60;99.90;;;;;;5012054;28;20161;-83
2022/05/30 01:06:51;;;;;;;10.20;2.90;;;6.50;99.90;;;;;;5025234;28;20116;-82
2022/05/30 01:09:40;;;;;;;9.13;3.03;;;6.40;99.90;;;;;;5026855;28;20077;-84
2022/05/30 01:12:09;;;;;;;13.02;3.47;;;6.50;99.90;;;;;;5019905;28;20118;-83
2022/05/30 01:14:41;;;;;;;13.00;3.15;;;6.30;99.90;;;;;;5013029;28;20498;-83
2022/05/30 01:17:10;;;;;;;7.85;2.97;;;6.30;99.90;;;;;;5031023;28;20041;-82
2022/05/30 01:19:57;;;;;;;15.45;3.50;;;6.30;99.90;;;;;;5029871;28;20041;-82
2022/05/30 01:22:59;;;;;;;13.07;3.40;;;6.20;99.90;;;;;;5025458;28;20045;-83
2022/05/30 01:25:49;;;;;;;8.48;3.33;;;6.20;99.90;;;;;;5027447;28;20050;-82
2022/05/30 01:28:30;;;;;;;9.95;3.10;;;6.10;99.90;;;;;;5029112;28;20041;-83
2022/05/30 01:30:55;;;;;;;18.63;4.13;;;6.10;99.90;;;;;;5029177;28;20394;-82
2022/05/30 01:33:21;;;;;;;8.23;3.50;;;6.10;99.90;;;;;;5014267;28;20037;-85
2022/05/30 01:35:47;;;;;;;23.60;4.00;;;6.10;99.90;;;;;;5045731;28;20131;-83
2022/05/30 01:38:12;;;;;;;9.98;3.60;;;6.00;99.90;;;;;;5002295;28;20045;-83
2022/05/30 01:40:38;;;;;;;8.48;3.42;;;5.90;99.90;;;;;;5011609;28;20041;-85
2022/05/30 01:43:04;;;;;;;12.55;3.40;;;6.00;99.90;;;;;;5016938;28;20391;-83
2022/05/30 01:45:30;;;;;;;13.10;3.45;;;6.00;99.90;;;;;;5044610;28;20096;-83
2022/05/30 01:47:55;;;;;;;8.32;3.50;;;6.00;99.90;;;;;;4995825;28;20049;-82
2022/05/30 01:50:24;;;;;;;13.85;3.47;;;6.00;99.90;;;;;;5000946;28;20482;-82
2022/05/30 01:52:49;;;;;;;11.50;4.63;;;6.00;99.90;;;;;;5019065;28;20053;-83
2022/05/30 01:55:15;;;;;;;12.90;3.28;;;6.10;99.90;;;;;;5030152;28;20049;-83
2022/05/30 01:57:41;;;;;;;11.55;3.70;;;6.10;99.90;;;;;;4982828;28;20107;-83
2022/05/30 02:00:10;;;;;;;8.48;3.30;;;6.20;99.90;;;;;;5028220;28;20085;-82
2022/05/30 02:02:36;;;;;;;12.18;4.15;;;6.20;99.90;;;;;;5035792;28;20083;-83
2022/05/30 02:05:04;;;;;;;10.45;3.15;;;6.20;99.90;;;;;;5021497;28;20056;-83
2022/05/30 02:07:30;;;;;;;10.10;3.13;;;6.10;99.90;;;;;;5014185;28;20042;-82
2022/05/30 02:09:56;;;;;;;8.05;3.42;;;6.20;99.90;;;;;;5014432;28;20534;-83
2022/05/30 02:12:21;;;;;;;13.13;4.10;;;6.10;99.90;;;;;;5014344;28;20172;-84
2022/05/30 02:14:47;;;;;;;14.95;3.47;;;6.00;99.90;;;;;;5032706;28;20046;-82
2022/05/30 02:17:13;;;;;;;11.25;3.50;;;5.90;99.90;;;;;;5031773;28;20088;-83
2022/05/30 02:19:41;;;;;;;9.50;4.15;;;5.80;99.90;;;;;;5030014;28;20038;-83
2022/05/30 02:22:10;;;;;;;9.55;3.30;;;5.80;99.90;;;;;;5013566;28;20377;-84
2022/05/30 02:24:38;;;;;;;13.13;4.05;;;5.70;99.90;;;;;;5026246;28;20044;-82
2022/05/30 02:27:05;;;;;;;10.98;3.60;;;5.60;99.90;;;;;;5013448;28;20064;-82
2022/05/30 02:29:31;;;;;;;12.52;3.63;;;5.50;99.90;;;;;;5030584;28;20132;-83
2022/05/30 02:31:57;;;;;;;10.00;3.67;;;5.40;99.90;;;;;;4995565;28;20554;-84
2022/05/30 02:37:07;;;;;;;12.52;3.47;;;5.30;99.90;;;;;;5045107;28;20407;-83
2022/05/30 02:39:33;;;;;;;9.23;3.45;;;5.30;99.90;;;;;;5009214;28;20050;-83
2022/05/30 02:41:58;;;;;;;7.97;3.25;;;5.20;99.90;;;;;;4995398;28;20404;-82
2022/05/30 02:44:26;;;;;;;6.80;3.72;;;5.20;99.90;;;;;;5024133;28;20066;-84
2022/05/30 02:46:57;;;;;;;13.50;3.67;;;5.10;99.90;;;;;;5033111;28;20041;-83
2022/05/30 02:49:23;;;;;;;9.77;3.47;;;5.10;99.90;;;;;;5030626;28;20048;-83
2022/05/30 02:51:50;;;;;;;8.13;3.60;;;4.90;99.90;;;;;;5014087;28;20453;-83
2022/05/30 02:54:16;;;;;;;8.25;3.67;;;4.90;99.90;;;;;;5014308;28;20478;-83
2022/05/30 02:56:48;;;;;;;12.35;3.85;;;4.80;99.90;;;;;;4998489;28;20491;-82
2022/05/30 02:59:15;;;;;;;10.52;4.20;;;4.80;99.90;;;;;;5033081;28;20053;-83
2022/05/30 03:01:40;;;;;;;13.77;4.32;;;4.70;99.90;;;;;;5019543;28;20061;-83
2022/05/30 03:04:06;;;;;;;14.20;4.00;;;4.70;99.90;;;;;;5044520;28;20049;-85
2022/05/30 03:06:33;;;;;;;13.32;4.32;;;4.80;99.90;;;;;;5021915;28;20045;-84
2022/05/30 03:08:58;;;;;;;8.60;3.75;;;4.70;99.90;;;;;;5028935;28;20042;-82
2022/05/30 03:11:25;;;;;;;10.13;3.65;;;4.70;99.90;;;;;;5030215;28;20506;-83
2022/05/30 03:13:50;;;;;;;9.82;3.83;;;4.70;99.90;;;;;;5031312;28;20087;-84
2022/05/30 03:16:16;;;;;;;12.52;4.07;;;4.60;99.90;;;;;;5032519;28;20073;-82
2022/05/30 03:18:42;;;;;;;11.82;4.03;;;4.60;99.90;;;;;;4982239;28;20130;-83
2022/05/30 03:21:09;;;;;;;11.98;4.72;;;4.60;99.90;;;;;;5012006;28;20258;-83
2022/05/30 03:23:35;;;;;;;16.02;4.78;;;4.60;99.90;;;;;;4995892;28;20056;-84
2022/05/30 03:26:00;;;;;;;12.05;4.70;;;4.60;99.90;;;;;;5025065;28;20046;-83
2022/05/30 03:28:26;;;;;;;9.48;4.47;;;4.60;99.90;;;;;;4994867;28;20178;-83
2022/05/30 03:30:52;;;;;;;18.08;4.32;;;4.60;99.90;;;;;;5009594;28;20049;-83
2022/05/30 03:33:18;;;;;;;13.18;4.60;;;4.60;99.90;;;;;;5045274;28;21768;-83
2022/05/30 03:35:43;;;;;;;11.98;4.40;;;4.70;99.90;;;;;;5020864;28;20049;-82
2022/05/30 03:38:09;;;;;;;11.32;4.78;;;4.70;99.90;;;;;;5027040;28;20049;-83
2022/05/30 03:40:37;;;;;;;13.27;4.40;;;4.80;99.90;;;;;;4996579;28;20136;-82
2022/05/30 03:43:09;;;;;;;12.07;4.72;;;4.90;99.90;;;;;;5045464;28;20629;-82
2022/05/30 03:45:40;;;;;;;11.55;4.47;;;5.00;99.90;;;;;;5029812;28;20048;-82
2022/05/30 03:48:08;;;;;;;11.48;4.85;;;5.00;99.90;;;;;;5018805;28;20037;-83
2022/05/30 03:50:35;;;;;;;9.65;4.53;;;5.10;99.90;;;;;;5025929;28;20041;-83
2022/05/30 03:53:04;;;;;;;11.00;4.75;;;5.20;99.90;;;;;;5024444;28;20514;-82
2022/05/30 03:55:34;;;;;;;11.50;4.78;;;5.30;99.90;;;;;;5012828;28;20391;-83
2022/05/30 03:58:01;;;;;;;8.05;4.00;;;5.30;99.90;;;;;;5013774;28;20045;-83
2022/05/30 04:00:27;;;;;;;8.55;4.32;;;5.30;99.90;;;;;;5013454;28;20061;-82
2022/05/30 04:02:52;;;;;;;11.43;4.68;;;5.40;99.90;;;;;;5028436;28;20057;-83
2022/05/30 04:05:19;;;;;;;7.43;4.15;;;5.40;99.90;;;;;;4990986;28;20491;-83
2022/05/30 04:07:45;;;;;;;9.65;3.90;;;5.40;99.90;;;;;;5011806;28;20490;-83
2022/05/30 04:10:12;;;;;;;8.63;4.68;;;5.60;99.90;;;;;;5010707;28;20059;-83
2022/05/30 04:12:40;;;;;;;11.27;4.40;;;5.50;99.90;;;;;;5013444;28;20046;-83
2022/05/30 04:15:08;;;;;;;9.50;3.90;;;5.70;99.90;;;;;;5032430;28;20077;-82
2022/05/30 04:17:36;;;;;;;13.90;4.30;;;5.70;99.90;;;;;;5030080;28;20041;-83
2022/05/30 04:20:03;;;;;;;10.02;4.00;;;5.80;99.90;;;;;;5034190;28;20038;-83
2022/05/30 04:22:30;;;;;;;11.18;3.97;;;5.80;99.90;;;;;;5026265;28;20049;-83
2022/05/30 04:24:56;;;;;;;9.65;4.57;;;5.90;99.90;;;;;;5044484;28;20052;-83
2022/05/30 04:27:22;;;;;;;11.15;4.20;;;6.10;99.90;;;;;;4996257;28;20046;-82
2022/05/30 04:29:49;;;;;;;9.25;4.18;;;6.00;99.90;;;;;;5032312;28;20087;-83
2022/05/30 04:32:16;;;;;;;9.60;4.00;;;6.00;99.90;;;;;;5013269;28;20085;-83
2022/05/30 04:34:42;;;;;;;8.13;4.28;;;6.10;99.90;;;;;;5026161;28;20057;-83
2022/05/30 04:37:08;;;;;;;7.57;4.13;;;6.10;99.90;;;;;;5011687;28;20042;-83
2022/05/30 04:39:35;;;;;;;9.70;3.90;;;6.10;99.90;;;;;;5013761;28;20547;-83
2022/05/30 04:42:01;;;;;;;9.02;4.53;;;6.10;99.90;;;;;;5037482;28;20106;-82
2022/05/30 04:44:27;;;;;;;9.57;4.00;;;6.10;99.90;;;;;;5011768;28;20457;-84
2022/05/30 04:46:54;;;;;;;7.65;3.40;;;6.10;99.90;;;;;;5028260;28;20044;-82
2022/05/30 04:49:20;;;;;;;6.65;3.83;;;6.10;99.90;;;;;;5043145;28;20059;-84
2022/05/30 04:51:46;;;;;;;7.47;3.72;;;6.10;99.90;;;;;;5046011;28;20371;-83
2022/05/30 04:54:12;;;;;;;9.93;4.15;;;6.20;99.90;;;;;;4995060;28;20129;-81
2022/05/30 04:56:37;;;;;;;9.43;3.55;;;6.20;99.90;;;;;;5027038;28;20049;-82
2022/05/30 04:59:04;;;;;;;11.95;3.75;;;6.20;99.90;;;;;;5045735;28;20388;-83
2022/05/30 05:01:30;;;;;;;9.43;3.95;;;6.30;99.90;;;;;;5015376;28;20049;-81
2022/05/30 05:03:56;;;;;;;11.07;4.03;;;6.40;99.90;;;;;;5046414;28;20053;-82
2022/05/30 05:06:21;;;;;;;6.10;3.97;;;6.70;99.90;;;;;;5006651;28;20038;-83
2022/05/30 05:09:04;;;;;;;9.68;4.22;;;6.70;99.90;;;;;;4994026;28;20109;-82
2022/05/30 05:11:33;;;;;;;10.88;3.90;;;6.90;99.90;;;;;;5035593;28;20068;-83
2022/05/30 05:13:59;;;;;;;7.60;3.47;;;7.00;99.90;;;;;;5016018;28;20196;-82
2022/05/30 05:16:27;;;;;;;8.48;3.63;;;7.30;99.90;;;;;;5015875;28;20128;-84
2022/05/30 05:18:54;;;;;;;7.97;3.22;;;7.30;99.90;;;;;;5006956;28;20041;-83
2022/05/30 05:21:32;;;;;;;6.45;3.78;;;7.50;99.90;;;;;;5022143;28;20038;-84
2022/05/30 05:23:59;;;;;;;8.13;4.18;;;7.60;99.90;;;;;;5017541;28;21078;-84
2022/05/30 05:26:25;;;;;;;7.82;3.95;;;7.80;99.90;;;;;;5006682;28;20510;-84
2022/05/30 05:28:52;;;;;;;6.47;3.33;;;7.90;99.90;;;;;;5020375;28;20049;-84
2022/05/30 05:31:33;;;;;;;5.88;3.33;;;8.00;99.90;;;;;;5051940;28;20089;-84
2022/05/30 05:33:59;;;;;;;6.47;3.00;;;8.10;99.90;;;;;;5001907;28;20115;-85
2022/05/30 05:36:30;;;;;;;7.15;3.38;;;8.20;99.90;;;;;;5001890;28;20034;-84
2022/05/30 05:38:57;;;;;;;5.22;2.85;;;8.20;99.90;;;;;;5032915;28;20546;-86
2022/05/30 05:41:23;;;;;;;6.70;3.00;;;8.30;99.90;;;;;;5015753;28;20045;-85
2022/05/30 05:43:49;;;;;;;6.40;2.90;;;8.30;99.90;;;;;;4999854;28;20052;-84
2022/05/30 05:46:18;;;;;;;9.32;3.22;;;8.40;99.90;;;;;;5000766;28;20101;-84
2022/05/30 05:48:43;;;;;;;8.00;3.45;;;8.60;99.90;;;;;;5046764;28;20041;-83
2022/05/30 05:51:10;;;;;;;4.32;2.90;;;8.70;99.90;;;;;;5020895;28;20053;-83
2022/05/30 05:53:36;;;;;;;3.97;2.20;;;8.90;99.90;;;;;;4993629;28;20046;-84
2022/05/30 05:56:11;;;;;;;4.57;2.17;;;8.90;99.90;;;;;;5002495;28;20049;-83
2022/05/30 05:58:37;;;;;;;3.95;2.47;;;9.00;99.90;;;;;;5006145;28;21657;-83
2022/05/30 06:01:10;;;;;;;4.45;2.20;;;9.00;99.90;;;;;;4983538;28;20072;-84
2022/05/30 06:03:36;;;;;;;4.20;2.42;;;9.10;99.90;;;;;;5012763;28;20052;-83
2022/05/30 06:06:06;;;;;;;6.05;2.15;;;9.20;99.90;;;;;;5012902;28;21220;-84
2022/05/30 06:08:32;;;;;;;4.93;1.75;;;9.30;99.90;;;;;;5007795;28;20045;-82
2022/05/30 06:11:15;;;;;;;3.55;2.00;;;9.50;99.90;;;;;;5029854;28;20395;-84
2022/05/30 06:13:44;;;;;;;4.30;1.23;;;9.60;99.90;;;;;;5012125;28;20120;-83
2022/05/30 06:16:16;;;;;;;5.95;1.30;;;9.80;99.90;;;;;;5005899;28;20057;-82
2022/05/30 06:18:42;;;;;;;3.40;1.25;;;10.00;99.90;;;;;;5013682;28;20049;-83
2022/05/30 06:21:08;;;;;;;4.53;1.50;;;10.30;99.90;;;;;;5012788;28;20402;-83
2022/05/30 06:23:34;;;;;;;5.55;1.15;;;10.70;99.90;;;;;;5008884;28;20045;-83
2022/05/30 06:26:04;;;;;;;3.65;1.42;;;11.00;99.90;;;;;;5029996;28;20498;-85
2022/05/30 06:28:30;;;;;;;4.22;1.38;;;11.10;99.90;;;;;;5031057;28;20057;-84
2022/05/30 06:30:56;;;;;;;3.33;1.17;;;11.30;99.90;;;;;;5023567;28;20056;-83
2022/05/30 06:33:22;;;;;;;3.92;1.20;;;11.60;99.90;;;;;;5026053;28;20135;-82
2022/05/30 06:35:48;;;;;;;3.35;0.90;;;11.60;99.90;;;;;;5019277;28;20051;-82
2022/05/30 06:38:14;;;;;;;5.13;1.25;;;11.50;99.90;;;;;;5013349;28;20471;-83
2022/05/30 06:40:40;;;;;;;4.45;1.50;;;11.50;99.90;;;;;;5028695;28;20046;-84
2022/05/30 06:43:06;;;;;;;4.07;1.20;;;11.40;99.90;;;;;;4993411;28;20495;-83
2022/05/30 06:45:33;;;;;;;1.70;0.90;;;11.50;99.90;;;;;;5014719;28;20049;-82
2022/05/30 06:47:59;;;;;;;3.58;1.02;;;11.70;99.90;;;;;;5023730;28;20068;-82
2022/05/30 06:50:26;;;;;;;4.70;1.35;;;11.90;99.90;;;;;;5024879;28;20074;-82
2022/05/30 06:52:52;;;;;;;3.33;1.00;;;11.90;99.90;;;;;;5004085;28;20041;-83
2022/05/30 06:55:18;;;;;;;1.75;0.90;;;11.80;99.90;;;;;;4988942;28;20095;-82
2022/05/30 07:00:30;;;;;;;4.47;1.20;;;11.70;99.90;;;;;;5020304;28;20065;-83
2022/05/30 07:02:56;;;;;;;4.55;1.15;;;11.90;99.90;;;;;;5028213;28;20065;-83
2022/05/30 07:05:23;;;;;;;2.88;0.90;;;12.10;99.90;;;;;;5013017;28;20045;-83
2022/05/30 07:07:50;;;;;;;4.38;0.75;;;12.30;99.90;;;;;;4998499;28;20038;-82
2022/05/30 07:10:15;;;;;;;4.30;0.60;;;12.60;99.90;;;;;;5014443;28;20049;-82
2022/05/30 07:12:41;;;;;;;4.50;1.02;;;12.70;99.90;;;;;;4995620;28;20045;-82
2022/05/30 07:15:08;;;;;;;3.95;1.00;;;13.00;99.90;;;;;;4997927;28;20042;-85
2022/05/30 07:17:33;;;;;;;4.38;0.93;;;13.40;99.90;;;;;;5014428;28;20082;-82
2022/05/30 07:19:59;;;;;;;2.65;0.75;;;13.70;99.90;;;;;;4998403;28;20100;-83
2022/05/30 07:22:26;;;;;;;2.65;0.80;;;13.90;99.90;;;;;;5016177;28;20049;-82
2022/05/30 07:24:51;;;;;;;1.77;1.00;;;13.80;99.90;;;;;;5031467;28;20398;-82
2022/05/30 07:27:17;;;;;;;2.38;0.70;;;13.80;99.90;;;;;;5012734;28;20050;-85
2022/05/30 07:29:43;;;;;;;2.17;0.95;;;13.80;99.90;;;;;;5044327;28;20049;-83
2022/05/30 07:32:09;;;;;;;3.13;0.50;;;13.80;99.90;;;;;;5033282;28;20152;-85
2022/05/30 07:34:37;;;;;;;2.72;0.80;;;14.00;99.90;;;;;;5015138;28;20057;-83
2022/05/30 07:37:05;;;;;;;2.38;0.75;;;14.30;99.90;;;;;;5031266;28;20538;-83
2022/05/30 07:39:31;;;;;;;2.10;0.75;;;14.40;99.90;;;;;;5013019;28;20060;-83
2022/05/30 07:41:56;;;;;;;0.93;0.50;;;14.40;99.90;;;;;;4998333;28;20049;-82
2022/05/30 07:44:22;;;;;;;2.33;0.52;;;14.60;99.90;;;;;;5014042;28;20478;-81
2022/05/30 07:46:48;;;;;;;2.80;0.60;;;14.80;99.70;;;;;;5015702;28;20128;-82
2022/05/30 07:49:14;;;;;;;3.00;0.70;;;14.60;96.80;;;;;;4995568;28;20050;-84
2022/05/30 07:51:40;;;;;;;1.50;0.70;;;14.40;97.70;;;;;;5042066;28;20482;-83
2022/05/30 07:54:06;;;;;;;8.20;7.00;;;14.20;97.80;;;;;;5047670;28;20085;-83
2022/05/30 07:56:32;;;;;;;2.75;1.33;;;14.10;99.80;;;;;;5024746;28;20073;-84
2022/05/30 07:58:58;;;;;;;0.98;0.60;;;14.00;99.90;;;;;;5015315;28;20049;-85
2022/05/30 08:01:24;;;;;;;0.80;0.40;;;14.00;99.90;;;;;;4997935;28;20049;-83
2022/05/30 08:03:51;;;;;;;2.72;0.60;;;14.50;99.90;;;;;;5026363;28;20054;-83
2022/05/30 08:06:28;;;;;;;1.85;0.55;;;15.40;97.80;;;;;;5011845;28;20073;-83
2022/05/30 08:08:55;;;;;;;1.20;0.40;;;16.50;95.50;;;;;;5030255;28;20120;-84
2022/05/30 08:11:22;;;;;;;0.63;0.30;;;17.10;91.80;;;;;;5006948;28;20191;-83
2022/05/30 08:13:48;;;;;;;2.65;0.30;;;17.60;79.60;;;;;;5045813;28;20049;-83
2022/05/30 08:16:17;;;;;;;3.45;0.38;;;17.30;72.20;;;;;;5017439;28;20139;-88
2022/05/30 08:18:43;;;;;;;1.48;0.32;;;16.80;73.40;;;;;;5008492;28;20407;-83
2022/05/30 08:21:09;;;;;;;1.92;0.50;;;15.90;74.10;;;;;;5002270;28;20053;-83
2022/05/30 08:23:35;;;;;;;1.23;0.32;;;15.00;84.60;;;;;;5024376;28;20626;-83
2022/05/30 08:26:01;;;;;;;1.45;0.38;;;14.10;93.00;;;;;;4981326;28;20506;-84
2022/05/30 08:28:26;;;;;;;3.53;0.60;;;13.40;97.70;;;;;;5030977;28;20087;-83
2022/05/30 08:30:52;;;;;;;2.35;0.35;;;12.80;99.90;;;;;;5037982;28;20053;-83
2022/05/30 08:33:20;;;;;;;4.13;0.75;;;12.50;99.90;;;;;;5016886;28;20045;-85
2022/05/30 08:35:47;;;;;;;2.67;0.32;;;12.30;99.90;;;;;;5028092;28;20436;-84
2022/05/30 08:38:14;;;;;;;1.42;0.30;;;12.20;99.90;;;;;;5049016;28;20042;-84
2022/05/30 08:43:34;;;;;;;2.63;1.88;;;12.40;99.90;;;;;;5029544;28;20057;-84
2022/05/30 08:46:24;;;;;;;2.35;1.60;;;12.80;99.90;;;;;;5017694;28;20281;-84
2022/05/30 08:49:13;;;;;;;2.10;0.70;;;13.40;99.90;;;;;;5016830;28;20041;-84
2022/05/30 08:52:04;;;;;;;2.10;0.70;;;13.90;99.90;;;;;;5028868;28;20499;-83
2022/05/30 08:54:51;;;;;;;3.03;0.60;;;14.30;99.90;;;;;;5016736;28;20037;-83
2022/05/30 08:57:44;;;;;;;2.55;0.60;;;14.70;99.90;;;;;;5017249;28;20438;-84
2022/05/30 09:00:29;;;;;;;0.55;0.25;;;14.70;96.50;;;;;;5050843;28;20513;-84
2022/05/30 09:03:17;;;;;;;1.65;0.28;;;14.30;98.50;;;;;;5022540;28;20087;-83
2022/05/30 09:05:59;;;;;;;0.32;0.30;;;13.80;98.00;;;;;;5013743;28;20048;-83
2022/05/30 09:08:42;;;;;;;1.77;0.30;;;13.30;99.90;;;;;;5017306;28;20045;-85
2022/05/30 09:11:24;;;;;;;3.80;0.40;;;13.00;99.90;;;;;;5020141;28;20038;-83
2022/05/30 09:13:52;;;;;;;1.27;0.30;;;12.40;99.90;;;;;;5016329;28;20053;-85
2022/05/30 09:16:29;;;;;;;1.65;0.32;;;12.10;99.90;;;;;;5027175;28;20042;-83
2022/05/30 09:18:58;;;;;;;2.53;0.40;;;12.20;99.90;;;;;;5020404;28;20041;-84
2022/05/30 09:21:26;;;;;;;0.80;0.45;;;12.40;99.90;;;;;;5049932;28;20052;-84
2022/05/30 09:23:53;;;;;;;0.88;0.40;;;12.70;99.90;;;;;;5014324;28;20390;-83
2022/05/30 09:26:23;;;;;;;0.32;0.20;;;13.00;99.90;;;;;;5027875;28;20045;-84
2022/05/30 09:28:51;;;;;;;0.90;0.30;;;13.50;99.90;;;;;;5022881;28;20089;-83
2022/05/30 09:31:38;;;;;;;0.90;0.40;;;13.60;99.90;;;;;;5031543;28;20098;-83
2022/05/30 09:34:37;;;;;;;0.63;0.30;;;13.70;99.10;;;;;;5032146;28;20509;-83
2022/05/30 09:37:04;;;;;;;1.20;0.40;;;13.90;99.90;;;;;;5012130;28;20080;-83
2022/05/30 09:39:42;;;;;;;1.58;0.60;;;14.00;99.70;;;;;;5028236;28;20038;-85
2022/05/30 09:42:29;;;;;;;3.03;0.65;;;13.90;99.20;;;;;;5033727;28;20041;-83
2022/05/30 09:45:11;;;;;;;1.05;0.30;;;13.70;96.60;;;;;;5014509;28;20482;-84
2022/05/30 09:47:37;;;;;;;2.05;0.50;;;13.10;99.90;;;;;;5015028;28;20121;-84
2022/05/30 09:50:29;;;;;;;3.22;0.63;;;12.40;99.90;;;;;;5009039;28;20132;-84
2022/05/30 09:52:55;;;;;;;0.40;0.32;;;11.50;99.90;;;;;;5026230;28;20045;-83
2022/05/30 09:55:37;;;;;;;0.88;0.50;;;10.80;99.90;;;;;;5045621;28;20479;-84
2022/05/30 09:58:05;;;;;;;2.15;0.75;;;10.50;99.90;;;;;;5027964;28;20076;-84
2022/05/30 10:00:53;;;;;;;1.92;0.60;;;10.20;99.90;;;;;;5029322;28;20449;-84
2022/05/30 10:03:27;;;;;;;1.45;0.40;;;10.00;99.90;;;;;;5014561;28;20498;-84
2022/05/30 10:06:13;;;;;;;0.55;0.40;;;9.90;99.90;;;;;;5025737;28;20050;-83
2022/05/30 10:08:39;;;;;;;15.95;1.80;;;10.00;99.90;;;;;;5023348;28;20041;-84
2022/05/30 10:11:06;;;;;;;3.00;1.23;;;10.00;99.90;;;;;;5011304;28;20045;-84
2022/05/30 10:13:36;;;;;;;4.15;1.40;;;10.10;99.90;;;;;;5046552;28;20052;-85
2022/05/30 10:16:06;;;;;;;2.58;0.57;;;10.30;99.90;;;;;;5013039;28;20491;-84
2022/05/30 10:18:56;;;;;;;1.23;0.30;;;10.50;99.90;;;;;;5029512;28;20037;-84
2022/05/30 10:28:14;;;;;;;0.47;0.30;;;10.50;99.90;;;;;;5006187;28;20100;-85
2022/05/30 10:30:56;;;;;;;1.60;0.45;;;10.70;99.90;;;;;;5030506;28;20128;-85
2022/05/30 10:33:51;;;;;;;3.30;0.57;;;10.80;99.90;;;;;;4981317;28;20068;-84
2022/05/30 10:36:35;;;;;;;0.40;0.40;;;10.80;99.90;;;;;;4997343;28;20068;-84
2022/05/30 10:39:47;;;;;;;1.65;0.70;;;10.80;99.90;;;;;;5037941;28;20132;-85
2022/05/30 10:42:29;;;;;;;3.28;1.20;;;11.10;99.90;;;;;;5012947;28;20513;-85
2022/05/30 10:45:09;;;;;;;1.10;0.45;;;11.40;99.90;;;;;;5012673;28;20053;-85
2022/05/30 10:47:45;;;;;;;0.65;0.30;;;11.70;99.90;;;;;;5047002;28;20041;-86
2022/05/30 10:50:21;;;;;;;;;;;12.10;99.90;;;;;;5033185;28;20080;-84
2022/05/30 10:53:05;;;;;;;1.15;0.30;;;12.40;99.90;;;;;;5043208;28;19927;-86
2022/05/30 10:55:36;;;;;;;2.42;0.20;;;13.00;99.90;;;;;;5063609;28;20057;-83
2022/05/30 10:58:12;;;;;;;2.13;0.55;;;13.70;99.90;;;;;;5014222;28;20041;-83
2022/05/30 11:00:50;;;;;;;1.23;0.55;;;14.00;99.90;;;;;;5014360;28;20119;-84
2022/05/30 11:03:35;;;;;;;1.55;0.30;;;14.00;99.90;;;;;;5013644;28;20054;-83
2022/05/30 11:06:08;;;;;;;2.35;0.65;;;13.90;99.90;;;;;;5024003;28;20048;-84
2022/05/30 11:08:33;;;;;;;2.22;0.30;;;13.70;99.90;;;;;;5036156;28;20045;-85
2022/05/30 11:11:28;;;;;;;0.85;0.40;;;13.40;99.90;;;;;;5012535;28;20063;-84
2022/05/30 11:14:19;;;;;;;2.88;0.80;;;13.10;99.90;;;;;;5007228;28;20148;-83
2022/05/30 11:16:57;;;;;;;1.60;1.02;;;12.90;99.90;;;;;;5046395;28;20049;-83
2022/05/30 11:19:59;;;;;;;0.68;0.40;;;12.90;99.90;;;;;;5027911;28;20100;-85
2022/05/30 11:22:47;;;;;;;1.95;0.60;;;12.90;99.90;;;;;;5004381;28;20103;-83
2022/05/30 11:25:20;;;;;;;1.90;1.20;;;12.80;99.90;;;;;;5027479;28;20057;-84
2022/05/30 11:28:11;;;;;;;3.88;2.60;;;12.80;99.90;;;;;;5046992;28;20558;-84
2022/05/30 11:30:44;;;;;;;1.67;0.52;;;12.90;99.90;;;;;;5016998;28;20056;-87
2022/05/30 11:33:29;;;;;;;1.55;1.10;;;12.90;99.90;;;;;;5029646;28;20045;-84
2022/05/30 11:36:38;;;;;;;1.67;0.40;;;12.70;99.90;;;;;;5057258;28;20061;-85
2022/05/30 11:39:16;;;;;;;1.77;0.80;;;12.50;99.90;;;;;;5010968;28;20038;-83
2022/05/30 11:41:45;;;;;;;0.50;0.50;;;12.00;99.90;;;;;;5007085;28;20546;-84
2022/05/30 11:44:30;;;;;;;2.42;0.32;;;11.70;99.90;;;;;;5045073;28;20077;-84
2022/05/30 11:47:23;;;;;;;2.35;0.65;;;11.20;99.90;;;;;;5045403;28;20056;-84
2022/05/30 11:50:01;;;;;;;0.60;0.40;;;11.10;99.90;;;;;;5001604;28;20076;-83
2022/05/30 11:52:40;;;;;;;2.53;0.60;;;10.90;99.90;;;;;;4995931;28;20140;-85
2022/05/30 11:55:35;;;;;;;2.17;1.00;;;10.80;99.90;;;;;;5038996;28;20107;-84
2022/05/30 11:58:13;;;;;;;1.13;0.90;;;10.80;99.90;;;;;;5014955;28;20045;-85
2022/05/30 12:00:47;;;;;;;4.57;1.80;;;10.80;99.90;;;;;;5027789;28;20115;-84
2022/05/30 12:03:50;;;;;;;2.97;0.68;;;10.90;99.90;;;;;;5010106;28;20046;-83
2022/05/30 12:06:34;;;;;;;1.52;0.47;;;11.00;99.90;;;;;;5059944;28;20103;-82
2022/05/30 12:09:24;;;;;;;5.00;3.20;;;11.20;99.90;;;;;;5012632;28;20046;-84
2022/05/30 12:12:01;;;;;;;3.03;1.73;;;11.40;99.90;;;;;;5012275;28;20380;-83
2022/05/30 12:15:05;;;;;;;1.52;1.20;;;11.40;99.90;;;;;;5012359;28;20183;-83
2022/05/30 12:17:30;;;;;;;2.40;1.02;;;11.60;99.90;;;;;;5025313;28;20081;-84
2022/05/30 12:25:51;;;;;;;1.15;0.50;;;12.30;99.90;;;;;;5029916;28;20064;-85
2022/05/30 12:28:29;;;;;;;1.45;0.35;;;12.60;99.90;;;;;;5008160;28;20160;-83
2022/05/30 12:31:01;;;;;;;1.25;0.60;;;12.90;99.90;;;;;;5028549;28;20050;-84
2022/05/30 12:33:30;;;;;;;2.60;2.15;;;13.30;99.90;;;;;;5014088;28;20442;-84
2022/05/30 12:36:08;;;;;;;2.55;0.80;;;13.50;99.90;;;;;;5014003;28;20056;-84
2022/05/30 12:38:49;;;;;;;2.45;0.50;;;13.60;99.90;;;;;;5030082;28;20051;-85
2022/05/30 12:41:19;;;;;;;1.08;0.38;;;13.70;99.90;;;;;;5030065;28;20060;-85
2022/05/30 12:43:45;;;;;;;1.60;0.70;;;13.80;99.90;;;;;;5013341;28;20487;-85
2022/05/30 12:46:18;;;;;;;3.05;0.80;;;13.80;99.90;;;;;;4994692;28;20495;-83
2022/05/30 12:48:58;;;;;;;2.10;0.82;;;14.10;99.90;;;;;;5013044;28;20044;-84
2022/05/30 12:51:37;;;;;;;1.17;0.50;;;14.40;99.90;;;;;;5047108;28;20045;-84
2022/05/30 12:54:03;;;;;;;1.55;0.80;;;14.50;99.90;;;;;;5013298;28;20045;-84
2022/05/30 12:56:40;;;;;;;2.70;1.00;;;14.70;99.90;;;;;;5029988;28;20099;-84
2022/05/30 12:59:06;;;;;;;1.63;1.00;;;15.20;99.90;;;;;;5000560;28;20418;-84
2022/05/30 13:01:43;;;;;;;4.97;1.63;;;16.20;99.90;;;;;;5028870;28;20053;-84
2022/05/30 13:04:15;;;;;;;2.38;0.90;;;17.40;99.90;;;;;;5028219;28;20045;-84
2022/05/30 13:07:09;;;;;;;2.55;1.08;;;17.90;96.70;;;;;;5046182;28;20057;-83
2022/05/30 13:09:48;;;;;;;2.03;0.80;;;18.60;90.10;;;;;;5013074;28;20049;-84
2022/05/30 13:12:51;;;;;;;2.17;0.90;;;18.70;93.00;;;;;;5014569;28;20042;-83
2022/05/30 13:15:54;;;;;;;3.13;0.90;;;18.30;86.90;;;;;;5013506;28;20513;-84
2022/05/30 13:18:21;;;;;;;2.28;0.80;;;17.60;92.10;;;;;;5003007;28;20061;-84
2022/05/30 13:21:00;;;;;;;2.10;0.73;;;17.30;92.20;;;;;;5032866;28;20049;-84
2022/05/30 13:23:33;;;;;;;2.15;0.60;;;17.30;96.40;;;;;;5017240;28;20091;-84
2022/05/30 13:26:00;;;;;;;1.58;0.80;;;17.30;82.70;;;;;;5032786;28;20121;-84
2022/05/30 13:28:32;;;;;;;3.45;1.17;;;16.90;90.30;;;;;;5025708;28;20038;-84
2022/05/30 13:31:02;;;;;;;2.08;0.88;;;16.30;85.60;;;;;;5007206;28;20069;-84
2022/05/30 13:33:50;;;;;;;1.48;0.75;;;15.80;93.50;;;;;;5010986;28;20069;-84
2022/05/30 13:36:20;;;;;;;4.53;1.45;;;15.40;90.10;;;;;;5013628;28;20098;-84